METAR Data
IDs: Format: Raw Decoded Include TAF

Data at: 0858 UTC 26 Jan 2020

KY23 260835Z AUTO 00000KT 10SM OVC006 M04/M04 A2992 RMK AO2 T10361042
KY23 260815Z AUTO 27003KT 10SM OVC006 M03/M04 A2992 RMK AO2 T10351041
KY23 260755Z AUTO 29003KT 10SM OVC006 M03/M04 A2992 RMK AO2 T10331040
KY23 260735Z AUTO 29003KT 10SM OVC006 M03/M04 A2992 RMK AO2 T10331040
KY23 260715Z AUTO 29005KT 10SM OVC006 M03/M04 A2992 RMK AO2 T10311039
KY23 260655Z AUTO 00000KT 10SM OVC006 M03/M04 A2992 RMK AO2 T10281037
KY23 260635Z AUTO 29004KT 10SM OVC008 M03/M03 A2992 RMK AO2 T10261035
KY23 260615Z AUTO 30005KT 10SM OVC008 M02/M03 A2992 RMK AO2 T10241035
KY23 260555Z AUTO 29005KT 10SM OVC010 M02/M03 A2991 RMK AO2 T10231035 11003 21023
KY23 260535Z AUTO 29004KT 10SM OVC010 M02/M04 A2992 RMK AO2 T10231036
KY23 260515Z AUTO 30004KT 10SM OVC010 M02/M04 A2991 RMK AO2 T10221036
KY23 260455Z AUTO 29004KT 10SM OVC012 M02/M04 A2991 RMK AO2 T10221038 400201022
KY23 260435Z AUTO 30004KT 10SM OVC012 M02/M04 A2991 RMK AO2 T10221040
KY23 260415Z AUTO 28004KT 10SM OVC012 M02/M04 A2990 RMK AO2 T10211038
KY23 260355Z AUTO 28003KT 10SM OVC014 M02/M04 A2991 RMK AO2 T10211038
KY23 260335Z AUTO 30003KT 10SM OVC016 M02/M04 A2990 RMK AO2 T10191036
KY23 260315Z AUTO 29003KT 10SM BKN016 OVC042 M01/M03 A2990 RMK AO2 T10151031
KY23 260255Z AUTO 29004KT 10SM SCT018 OVC040 M01/M03 A2990 RMK AO2 T10121026
KY23 260235Z AUTO 29003KT 10SM OVC040 M01/M02 A2990 RMK AO2 T10121022
KY23 260215Z AUTO 00000KT 10SM OVC040 M01/M02 A2990 RMK AO2 T10151023
KY23 260155Z AUTO 00000KT 10SM OVC040 M01/M02 A2990 RMK AO2 T10151025
KY23 260135Z AUTO 00000KT 10SM OVC042 M02/M03 A2990 RMK AO2 T10191029
KY23 260115Z AUTO 00000KT 10SM SCT016 OVC042 M01/M03 A2990 RMK AO2 T10151026
KY23 260055Z AUTO 00000KT 10SM BKN016 BKN110 M01/M02 A2990 RMK AO2 T10111025
KY23 260035Z AUTO 30004KT 10SM SCT040 BKN110 M01/M02 A2989 RMK AO2 T10091024
KY23 260015Z AUTO 30003KT 10SM BKN025 BKN040 BKN110 00/M02 A2990 RMK AO2 T10051023
KY23 252355Z AUTO 29003KT 10SM BKN027 OVC032 00/M02 A2990 RMK AO2 T10031020 10020 21003
KY23 252335Z AUTO 30003KT 10SM OVC034 00/M02 A2989 RMK AO2 T10011020
KY23 252315Z AUTO 31003KT 10SM BKN036 OVC045 00/M02 A2989 RMK AO2 T00001020
KY23 252255Z AUTO 00000KT 10SM OVC038 00/M02 A2989 RMK AO2 T00001020
KY23 252235Z AUTO 00000KT 10SM SCT013 OVC040 00/M02 A2988 RMK AO2 T00001019
KY23 252215Z AUTO 32003KT 10SM BKN013 OVC044 00/M02 A2988 RMK AO2 T00001019
KY23 252155Z AUTO 32004KT 10SM OVC013 00/M02 A2989 RMK AO2 T00001017
KY23 252135Z AUTO 00000KT 10SM OVC013 00/M02 A2988 RMK AO2 T00001016
KY23 252115Z AUTO 33004KT 5SM -SN BKN013 BKN020 OVC032 00/M01 A2988 RMK AO2 T00011015
KY23 252055Z AUTO 31003KT 5SM -SN BKN015 BKN020 OVC032 00/M01 A2988 RMK AO2 T00001015
KY23 252035Z AUTO 31003KT 10SM OVC013 01/M02 A2987 RMK AO2 T00051016
KY23 252015Z AUTO 30005KT 10SM OVC013 01/M02 A2987 RMK AO2 T00051016
KY23 251955Z AUTO 30007KT 10SM OVC013 01/M01 A2988 RMK AO2 T00081015
KY23 251935Z AUTO 31005KT 10SM OVC013 01/M02 A2988 RMK AO2 T00061016
KY23 251915Z AUTO 31005KT 10SM OVC013 01/M01 A2988 RMK AO2 T00091015
KY23 251855Z AUTO 31005KT 10SM OVC013 01/M01 A2988 RMK AO2 T00101013
KY23 251835Z AUTO 33004KT 10SM OVC013 02/M01 A2988 RMK AO2 T00151012
KY23 251815Z AUTO 00000KT 10SM BKN013 OVC070 02/M01 A2988 RMK AO2 T00161012
KY23 251755Z AUTO 33004KT 10SM BKN011 OVC070 01/M01 A2989 RMK AO2 T00121012 10012 21010
KY23 251735Z AUTO 32004KT 10SM OVC011 01/M01 A2989 RMK AO2 T00051015
KY23 251715Z AUTO 33004KT 10SM OVC011 00/M01 A2989 RMK AO2 T00031013
KY23 251655Z AUTO 32006KT 10SM OVC009 00/M01 A2990 RMK AO2 T00021013
KY23 251635Z AUTO 33006KT 10SM OVC009 00/M02 A2990 RMK AO2 T00001016
KY23 251615Z AUTO 00000KT 10SM BKN011 OVC050 00/M01 A2989 RMK AO2 T10011015
KY23 251555Z AUTO 32006KT 10SM OVC009 00/M01 A2989 RMK AO2 T10031015
KY23 251535Z AUTO 33004KT 10SM OVC009 00/M01 A2989 RMK AO2 T10031014
KY23 251515Z AUTO 33003KT 10SM OVC009 00/M01 A2988 RMK AO2 T10011011
KY23 251455Z AUTO 34004KT 10SM OVC009 00/M01 A2988 RMK AO2 T10051012
KY23 251435Z AUTO 33004KT 10SM OVC009 M01/M01 A2988 RMK AO2 T10061013
KY23 251415Z AUTO 33003KT 10SM OVC009 M01/M01 A2989 RMK AO2 T10081015
KY23 251355Z AUTO 33004KT 10SM OVC009 M01/M01 A2988 RMK AO2 T10071015
KY23 251335Z AUTO 33003KT 10SM OVC009 M01/M01 A2988 RMK AO2 T10071015
KY23 251315Z AUTO 31003KT 10SM OVC009 M01/M01 A2987 RMK AO2 T10081015
KY23 251255Z AUTO 33006KT 10SM OVC009 M01/M01 A2987 RMK AO2 T10101015
KY23 251235Z AUTO 33003KT 10SM OVC009 M01/M01 A2986 RMK AO2 T10101015
KY23 251215Z AUTO 33004KT 7SM UP OVC009 M01/M01 A2987 RMK AO2 T10101015
KY23 251155Z AUTO 00000KT 5SM -SN OVC009 M01/M01 A2986 RMK AO2 T10101015 11001 21010
KY23 251135Z AUTO 33004KT 7SM -SN OVC007 M01/M01 A2986 RMK AO2 T10101015
KY23 251115Z AUTO 33003KT 4SM -SN OVC007 M01/M01 A2986 RMK AO2 T10101013
KY23 251055Z AUTO 32004KT 3SM UP OVC005 M01/M01 A2986 RMK AO2 T10101012
KY23 251035Z AUTO 31004KT 3SM UP OVC007 00/M01 A2986 RMK AO2 T10051008
KY23 251015Z AUTO 33004KT 4SM -SN OVC007 00/M01 A2986 RMK AO2 T10051007
KY23 250955Z AUTO 31003KT 4SM UP OVC007 00/M01 A2986 RMK AO2 T10041007
KY23 250935Z AUTO 33004KT 10SM OVC007 00/M01 A2987 RMK AO2 T10051006
KY23 250915Z AUTO 33005KT 5SM UP OVC007 00/00 A2986 RMK AO2 T10031005
KY23 250855Z AUTO 33003KT 2 1/2SM UP OVC007 00/00 A2987 RMK AO2 T10011003
KY23 250835Z AUTO 33005KT 3SM UP OVC007 00/00 A2987 RMK AO2 T10011003
KY23 250815Z AUTO 33005KT 7SM OVC007 00/00 A2987 RMK AO2 T10021005
KY23 250755Z AUTO 00000KT 7SM OVC007 00/00 A2987 RMK AO2 T10031005
KY23 250735Z AUTO 34003KT 4SM UP OVC007 00/00 A2987 RMK AO2 T10031005
KY23 250715Z AUTO 00000KT 3SM UP OVC007 00/00 A2987 RMK AO2 T10031005
KY23 250655Z AUTO 33003KT 4SM UP BKN007 BKN012 OVC022 00/00 A2988 RMK AO2 T10031005
KY23 250635Z AUTO 33004KT 4SM -SN SCT007 BKN024 OVC045 00/00 A2988 RMK AO2 T10031005
KY23 250615Z AUTO 00000KT 3SM -SN SCT010 OVC024 00/00 A2989 RMK AO2 T10021005
KY23 250555Z AUTO 33003KT 5SM -SN SCT010 BKN026 OVC042 00/M01 A2989 RMK AO2 T10011007 10002 21001
KY23 250535Z AUTO 33003KT 10SM UP BKN026 OVC032 00/M01 A2990 RMK AO2 T10011007
KY23 250515Z AUTO 00000KT 10SM SCT026 BKN032 OVC042 00/M01 A2990 RMK AO2 T10011007
KY23 250455Z AUTO 33003KT 10SM SCT036 OVC042 00/M01 A2990 RMK AO2 T10011008 400111015
KY23 250435Z AUTO 35003KT 10SM OVC038 00/M01 A2990 RMK AO2 T00001008
KY23 250415Z AUTO 35003KT 10SM SCT038 SCT049 OVC060 00/M01 A2991 RMK AO2 T10011008
KY23 250355Z AUTO 35004KT 10SM OVC060 00/M01 A2990 RMK AO2 T10011007
KY23 250335Z AUTO 35003KT 10SM -SN OVC060 00/M01 A2991 RMK AO2 T00001006
KY23 250315Z AUTO 00000KT 10SM -SN SCT013 SCT030 OVC060 00/M01 A2991 RMK AO2 T00001006
KY23 250255Z AUTO 35003KT 10SM -SN SCT013 BKN032 OVC090 00/00 A2992 RMK AO2 T00001005
KY23 250235Z AUTO 34004KT 10SM -SN SCT011 BKN065 OVC090 00/00 A2992 RMK AO2 T00001005
KY23 250215Z AUTO 00000KT 10SM -SN SCT011 BKN030 OVC090 00/00 A2992 RMK AO2 T00001005
KY23 250155Z AUTO 35003KT 10SM -SN SCT013 OVC028 00/00 A2992 RMK AO2 T00001005
KY23 250135Z AUTO 35003KT 10SM -SN OVC028 00/00 A2993 RMK AO2 T00011003
KY23 250115Z AUTO 34003KT 10SM -SN OVC026 00/00 A2993 RMK AO2 T00011002
KY23 250055Z AUTO 35003KT 10SM SCT017 OVC026 00/00 A2993 RMK AO2 T00011001
KY23 250035Z AUTO 35003KT 10SM OVC017 00/00 A2993 RMK AO2 T00010000
KY23 250015Z AUTO 34004KT 10SM BKN017 OVC025 00/00 A2994 RMK AO2 T00020000
KY23 242355Z AUTO 35003KT 10SM SCT017 BKN027 OVC035 00/00 A2994 RMK AO2 T00010000 10011 20000
KY23 242335Z AUTO 34003KT 10SM BKN017 OVC037 00/00 A2994 RMK AO2 T00000000
KY23 242315Z AUTO 00000KT 10SM OVC017 00/00 A2993 RMK AO2 T00010000
KY23 242255Z AUTO 00000KT 10SM OVC019 00/00 A2994 RMK AO2 T00010001
KY23 242235Z AUTO 00000KT 7SM OVC017 00/00 A2993 RMK AO2 T00020001
KY23 242215Z AUTO 00000KT 7SM OVC017 01/00 A2994 RMK AO2 T00050002
KY23 242155Z AUTO 00000KT 10SM OVC015 01/00 A2994 RMK AO2 T00050001
KY23 242135Z AUTO 00000KT 10SM -SN OVC015 01/00 A2994 RMK AO2 T00060003
KY23 242115Z AUTO 00000KT 7SM OVC015 01/00 A2993 RMK AO2 T00060003